Aérodrome :







RETROUVEZ-NOUS SUR...

 
LOGIN :

S'inscrire | Disclaimer

   EN    FR    IT 

 









Légende :    VFR   VFR Marginal   IFR   IFR Intensif   IFR Très Intensif
Visi : 
Plafond : 
>= 8 km
>= 3000ft
5 à 8 km
1000 à 3000 ft
1500m à 5 km
500 à 1000 ft
800 à 1500m
200 à 500 ft
< 800m
< 200 ft
Symboles :   Orages  Brouillard  Fortes neiges  Fortes précipitations  Vent > 20 kt






- Altitude de l'aérodrome : 160 ft
- Code IATA : YYR


CYYR - Goose Bay

DERNIER METAR :
  • 261400Z 20005KT 15SM SKC M10/M13 A3028 RMK SLP258

METARs EXPIRÉS :
  • 261300Z 22007KT 15SM SKC M13/M15 A3025 RMK FROIN SLP250
  • 261200Z 20004KT 15SM SKC M14/M16 A3024 RMK FROIN SLP247

TAF TAF CYYR
Valide du 26 à 12h jusqu'au 27 à 12h UTC


261130Z 2612/2712 20010KT P6SM FEW250
FM261400 24008KT P6SM SCT030 SCT080
TEMPO 2614/2621 BKN030
FM262100 21005KT P6SM SCT020 BKN160
FM270300 20005KT P6SM BKN015 OVC120
FM270700 20010KT 1SM -SN OVC015
FM271000 20010KT 2SM -SN -PL OVC015 RMK NXT FCST BY 261800Z
FIR CZQX / Amérique du Nord



MET'MAP, la Météo Aéronautique d'un coup d'oeil ! - Copyright ORBIFLY Décembre 2007 - Disclaimer

ORBIFLY MET'MAP TEAM :

Programmation & Développement : Alexandra Zaïnal
Sur une idée originale de : Baudouin d'Aumeries
Assistance à la programmation : Marc-Olivier Méhu
Soutien technique & logistique : Manuel Goepfert

Contact : metmap@orbifly.com




SOURCES & CREDITS :

   NOAA